PWSweather.com
Personal Weather Stations
Station Observations
RRFWEATHER
Rail Road Flat, Rail Road Flat, CA 95248

Rail Road FlatRail Road Flat, CA 95248

Lat: 38.306238, Lon: -120.514548

Elevation: 2808

Station Type: Oregon Scientific WMR-968

http://weather.railroadflat.org

High Low Average
Temperature 59.2°F15.1°F 45.1°F7.3°F 50.9°F10.5°F
Dew Point 52.7°F11.5°F 41.4°F5.2°F 45.9°F7.7°F
Winds 7.6 mph S12.2 mph S Calm Calm 0.7 mph 1.1 mph
Wind Gusts 8.3 mph13.4 mph -- 2.6 mph4.2 mph
Humidity 99% 55% 84%
Pressure 29.97 in1014.90 in 29.85 in1010.80 in -
Precipitation 5.36 in136.10 in - -
Hour Temp Dew Point Humidity Winds Wind Gusts Pressure Precip Precip Rate Daily Precip Total
12:00 AM 54.7°F12.6°C 49.0°F9.4°C 81% Calm Calm -- 29.88 in1011.9 mb 0.00 in0.0 mm 0.00 in0.0 mm 0.00 in0.0 mm
12:05 AM 54.7°F12.6°C 48.4°F9.1°C 79% Calm Calm -- 29.88 in1011.9 mb 0.00 in0.0 mm 0.00 in0.0 mm 0.00 in0.0 mm
12:10 AM 54.5°F12.5°C 47.7°F8.7°C 78% Calm Calm 2.2 mph3.5 kmh 29.88 in1011.9 mb 0.00 in0.0 mm 0.00 in0.0 mm 0.00 in0.0 mm
12:15 AM 54.3°F12.4°C 46.4°F8.0°C 75% Calm Calm 3.6 mph5.8 kmh 29.88 in1011.9 mb 0.00 in0.0 mm 0.00 in0.0 mm 0.00 in0.0 mm
12:20 AM 54.3°F12.4°C 47.0°F8.3°C 76% Calm Calm 3.6 mph5.8 kmh 29.88 in1011.9 mb 0.00 in0.0 mm 0.00 in0.0 mm 0.00 in0.0 mm
12:25 AM 54.1°F12.3°C 47.3°F8.5°C 78% 2.2 mph NNW3.5 kmh NNW 3.6 mph5.8 kmh 29.88 in1011.9 mb 0.00 in0.0 mm 0.00 in0.0 mm 0.00 in0.0 mm
12:31 AM 53.9°F12.2°C 46.0°F7.8°C 75% Calm Calm 3.6 mph5.8 kmh 29.88 in1011.9 mb 0.00 in0.0 mm 0.00 in0.0 mm 0.00 in0.0 mm
12:35 AM 53.9°F12.2°C 46.0°F7.8°C 75% Calm Calm 3.6 mph5.8 kmh 29.88 in1011.9 mb 0.00 in0.0 mm 0.00 in0.0 mm 0.00 in0.0 mm
12:40 AM 53.9°F12.2°C 45.5°F7.5°C 73% Calm Calm 3.6 mph5.8 kmh 29.88 in1011.9 mb 0.00 in0.0 mm 0.00 in0.0 mm 0.00 in0.0 mm
12:45 AM 53.8°F12.1°C 45.3°F7.4°C 73% Calm Calm 3.6 mph5.8 kmh 29.88 in1011.9 mb 0.00 in0.0 mm 0.00 in0.0 mm 0.00 in0.0 mm
12:50 AM 53.8°F12.1°C 44.7°F7.1°C 71% Calm Calm 3.6 mph5.8 kmh 29.88 in1011.9 mb 0.00 in0.0 mm 0.00 in0.0 mm 0.00 in0.0 mm
12:55 AM 53.6°F12.0°C 43.9°F6.6°C 70% Calm Calm 3.6 mph5.8 kmh 29.88 in1011.9 mb 0.00 in0.0 mm 0.00 in0.0 mm 0.00 in0.0 mm
01:05 AM 53.4°F11.9°C 41.9°F5.5°C 65% Calm Calm -- 29.88 in1011.9 mb 0.00 in0.0 mm 0.00 in0.0 mm 0.00 in0.0 mm
01:10 AM 53.4°F11.9°C 42.5°F5.8°C 66% Calm Calm -- 29.88 in1011.9 mb 0.00 in0.0 mm 0.00 in0.0 mm 0.00 in0.0 mm
01:15 AM 53.2°F11.8°C 43.0°F6.1°C 68% Calm Calm -- 29.88 in1011.9 mb 0.00 in0.0 mm 0.00 in0.0 mm 0.00 in0.0 mm
01:20 AM 53.2°F11.8°C 42.3°F5.7°C 66% Calm Calm -- 29.88 in1011.9 mb 0.00 in0.0 mm 0.00 in0.0 mm 0.00 in0.0 mm
01:25 AM 53.2°F11.8°C 42.3°F5.7°C 66% Calm Calm -- 29.88 in1011.9 mb 0.00 in0.0 mm 0.00 in0.0 mm 0.00 in0.0 mm
01:30 AM 53.2°F11.8°C 42.3°F5.7°C 66% Calm Calm -- 29.88 in1011.9 mb 0.00 in0.0 mm 0.00 in0.0 mm 0.00 in0.0 mm
01:35 AM 53.2°F11.8°C 42.3°F5.7°C 66% Calm Calm -- 29.85 in1010.8 mb 0.00 in0.0 mm 0.00 in0.0 mm 0.00 in0.0 mm
01:41 AM 53.0°F11.7°C 42.8°F6.0°C 68% Calm Calm -- 29.85 in1010.8 mb 0.00 in0.0 mm 0.00 in0.0 mm 0.00 in0.0 mm
01:45 AM 53.0°F11.7°C 44.6°F7.0°C 73% Calm Calm -- 29.85 in1010.8 mb 0.00 in0.0 mm 0.00 in0.0 mm 0.00 in0.0 mm
01:50 AM 52.9°F11.6°C 45.0°F7.2°C 75% Calm Calm -- 29.85 in1010.8 mb 0.00 in0.0 mm 0.00 in0.0 mm 0.00 in0.0 mm
01:55 AM 52.9°F11.6°C 45.0°F7.2°C 75% Calm Calm -- 29.85 in1010.8 mb 0.00 in0.0 mm 0.00 in0.0 mm 0.00 in0.0 mm
02:00 AM 53.0°F11.7°C 45.2°F7.3°C 75% Calm Calm -- 29.85 in1010.8 mb 0.00 in0.0 mm 0.00 in0.0 mm 0.00 in0.0 mm
02:05 AM 53.4°F11.9°C 45.5°F7.5°C 75% Calm Calm -- 29.85 in1010.8 mb 0.00 in0.0 mm 0.00 in0.0 mm 0.00 in0.0 mm
02:10 AM 53.6°F12.0°C 45.7°F7.6°C 75% Calm Calm -- 29.85 in1010.8 mb 0.00 in0.0 mm 0.00 in0.0 mm 0.00 in0.0 mm
02:15 AM 53.6°F12.0°C 45.7°F7.6°C 75% Calm Calm -- 29.85 in1010.8 mb 0.00 in0.0 mm 0.00 in0.0 mm 0.00 in0.0 mm
02:20 AM 53.8°F12.1°C 45.3°F7.4°C 73% Calm Calm -- 29.85 in1010.8 mb 0.00 in0.0 mm 0.00 in0.0 mm 0.00 in0.0 mm
02:30 AM 53.8°F12.1°C 45.3°F7.4°C 73% Calm Calm -- 29.85 in1010.8 mb 0.00 in0.0 mm 0.00 in0.0 mm 0.00 in0.0 mm
02:35 AM 53.6°F12.0°C 44.5°F6.9°C 71% Calm Calm -- 29.85 in1010.8 mb 0.00 in0.0 mm 0.00 in0.0 mm 0.00 in0.0 mm
02:40 AM 53.4°F11.9°C 43.8°F6.6°C 70% Calm Calm -- 29.85 in1010.8 mb 0.00 in0.0 mm 0.00 in0.0 mm 0.00 in0.0 mm
02:45 AM 53.0°F11.7°C 43.4°F6.3°C 70% Calm Calm -- 29.85 in1010.8 mb 0.00 in0.0 mm 0.00 in0.0 mm 0.00 in0.0 mm
02:51 AM 52.7°F11.5°C 43.7°F6.5°C 71% Calm Calm -- 29.85 in1010.8 mb 0.00 in0.0 mm 0.00 in0.0 mm 0.00 in0.0 mm
02:55 AM 52.5°F11.4°C 44.1°F6.7°C 73% Calm Calm -- 29.85 in1010.8 mb 0.00 in0.0 mm 0.00 in0.0 mm 0.00 in0.0 mm
03:00 AM 52.3°F11.3°C 43.9°F6.6°C 73% Calm Calm -- 29.85 in1010.8 mb 0.00 in0.0 mm 0.00 in0.0 mm 0.00 in0.0 mm
03:05 AM 52.0°F11.1°C 43.6°F6.4°C 73% Calm Calm -- 29.85 in1010.8 mb 0.00 in0.0 mm 0.00 in0.0 mm 0.00 in0.0 mm
03:10 AM 51.8°F11.0°C 43.4°F6.3°C 73% Calm Calm -- 29.85 in1010.8 mb 0.00 in0.0 mm 0.00 in0.0 mm 0.00 in0.0 mm
03:15 AM 51.6°F10.9°C 43.2°F6.2°C 73% Calm Calm -- 29.85 in1010.8 mb 0.00 in0.0 mm 0.00 in0.0 mm 0.00 in0.0 mm
03:21 AM 51.4°F10.8°C 43.6°F6.4°C 75% Calm Calm -- 29.85 in1010.8 mb 0.00 in0.0 mm 0.00 in0.0 mm 0.00 in0.0 mm
03:25 AM 51.2°F10.7°C 43.4°F6.3°C 75% Calm Calm -- 29.85 in1010.8 mb 0.00 in0.0 mm 0.00 in0.0 mm 0.00 in0.0 mm
03:31 AM 51.1°F10.6°C 43.3°F6.3°C 75% Calm Calm -- 29.85 in1010.8 mb 0.00 in0.0 mm 0.00 in0.0 mm 0.00 in0.0 mm
03:35 AM 50.9°F10.5°C 43.1°F6.2°C 75% Calm Calm -- 29.85 in1010.8 mb 0.00 in0.0 mm 0.00 in0.0 mm 0.00 in0.0 mm
03:40 AM 50.7°F10.4°C 42.9°F6.1°C 75% Calm Calm -- 29.85 in1010.8 mb 0.00 in0.0 mm 0.00 in0.0 mm 0.00 in0.0 mm
03:45 AM 50.7°F10.4°C 43.5°F6.4°C 76% Calm Calm -- 29.85 in1010.8 mb 0.00 in0.0 mm 0.00 in0.0 mm 0.00 in0.0 mm
03:51 AM 50.3°F10.2°C 43.1°F6.2°C 76% Calm Calm -- 29.85 in1010.8 mb 0.00 in0.0 mm 0.00 in0.0 mm 0.00 in0.0 mm
03:55 AM 50.2°F10.1°C 43.5°F6.4°C 78% Calm Calm -- 29.85 in1010.8 mb 0.00 in0.0 mm 0.00 in0.0 mm 0.00 in0.0 mm
04:00 AM 50.0°F10.0°C 43.9°F6.6°C 79% Calm Calm -- 29.85 in1010.8 mb 0.00 in0.0 mm 0.00 in0.0 mm 0.00 in0.0 mm
04:05 AM 50.0°F10.0°C 44.4°F6.9°C 81% Calm Calm -- 29.85 in1010.8 mb 0.00 in0.0 mm 0.00 in0.0 mm 0.00 in0.0 mm
04:11 AM 49.8°F9.9°C 44.7°F7.1°C 83% Calm Calm -- 29.85 in1010.8 mb 0.00 in0.0 mm 0.00 in0.0 mm 0.00 in0.0 mm
04:15 AM 49.6°F9.8°C 44.6°F7.0°C 83% Calm Calm -- 29.85 in1010.8 mb 0.00 in0.0 mm 0.00 in0.0 mm 0.00 in0.0 mm
04:20 AM 49.6°F9.8°C 45.1°F7.3°C 84% Calm Calm 3.6 mph5.8 kmh 29.88 in1011.9 mb 0.00 in0.0 mm 0.00 in0.0 mm 0.00 in0.0 mm
04:25 AM 49.6°F9.8°C 46.1°F7.8°C 87% Calm Calm 3.6 mph5.8 kmh 29.88 in1011.9 mb 0.00 in0.0 mm 0.00 in0.0 mm 0.00 in0.0 mm
04:30 AM 49.8°F9.9°C 46.2°F7.9°C 87% Calm Calm 3.6 mph5.8 kmh 29.88 in1011.9 mb 0.00 in0.0 mm 0.00 in0.0 mm 0.00 in0.0 mm
04:35 AM 49.8°F9.9°C 46.7°F8.2°C 89% 2.2 mph WNW3.5 kmh WNW 3.6 mph5.8 kmh 29.85 in1010.8 mb 0.00 in0.0 mm 0.00 in0.0 mm 0.00 in0.0 mm
04:41 AM 49.6°F9.8°C 46.6°F8.1°C 89% 2.7 mph WNW4.3 kmh WNW 3.6 mph5.8 kmh 29.85 in1010.8 mb 0.00 in0.0 mm 0.00 in0.0 mm 0.00 in0.0 mm
04:45 AM 49.6°F9.8°C 46.1°F7.8°C 87% Calm Calm 3.6 mph5.8 kmh 29.85 in1010.8 mb 0.00 in0.0 mm 0.00 in0.0 mm 0.00 in0.0 mm
04:51 AM 50.2°F10.1°C 45.1°F7.3°C 83% 3.1 mph WNW5.0 kmh WNW 3.6 mph5.8 kmh 29.88 in1011.9 mb 0.00 in0.0 mm 0.00 in0.0 mm 0.00 in0.0 mm
04:56 AM 50.2°F10.1°C 46.6°F8.1°C 87% 2.2 mph NW3.5 kmh NW 4.0 mph6.4 kmh 29.88 in1011.9 mb 0.00 in0.0 mm 0.00 in0.0 mm 0.00 in0.0 mm
05:00 AM 49.6°F9.8°C 47.0°F8.3°C 91% 3.6 mph NW5.8 kmh NW 4.0 mph6.4 kmh 29.88 in1011.9 mb 0.00 in0.0 mm 0.00 in0.0 mm 0.00 in0.0 mm
05:05 AM 49.1°F9.5°C 47.0°F8.3°C 92% 2.7 mph NW4.3 kmh NW 4.0 mph6.4 kmh 29.88 in1011.9 mb 0.00 in0.0 mm 0.00 in0.0 mm 0.00 in0.0 mm
05:11 AM 48.5°F9.2°C 47.8°F8.8°C 97% Calm Calm 4.0 mph6.4 kmh 29.88 in1011.9 mb 0.00 in0.0 mm 0.00 in0.0 mm 0.00 in0.0 mm
05:15 AM 48.4°F9.1°C 48.1°F8.9°C 99% 2.7 mph NW4.3 kmh NW 4.0 mph6.4 kmh 29.88 in1011.9 mb 0.00 in0.0 mm 0.00 in0.0 mm 0.00 in0.0 mm
05:21 AM 48.0°F8.9°C 48.0°F8.9°C 99% Calm Calm 4.0 mph6.4 kmh 29.88 in1011.9 mb 0.00 in0.0 mm 0.00 in0.0 mm 0.00 in0.0 mm
05:25 AM 47.6°F8.7°C 47.6°F8.7°C 99% Calm Calm 4.0 mph6.4 kmh 29.88 in1011.9 mb 0.00 in0.0 mm 0.00 in0.0 mm 0.00 in0.0 mm
05:31 AM 47.3°F8.5°C 47.3°F8.5°C 99% Calm Calm 4.0 mph6.4 kmh 29.88 in1011.9 mb 0.00 in0.0 mm 0.00 in0.0 mm 0.00 in0.0 mm
05:35 AM 47.1°F8.4°C 47.1°F8.4°C 99% Calm Calm 4.0 mph6.4 kmh 29.88 in1011.9 mb 0.00 in0.0 mm 0.00 in0.0 mm 0.00 in0.0 mm
05:40 AM 46.9°F8.3°C 46.9°F8.3°C 99% Calm Calm 4.0 mph6.4 kmh 29.88 in1011.9 mb 0.00 in0.0 mm 0.00 in0.0 mm 0.00 in0.0 mm
05:50 AM 46.6°F8.1°C 46.6°F8.1°C 99% Calm Calm 4.0 mph6.4 kmh 29.88 in1011.9 mb 0.00 in0.0 mm 0.00 in0.0 mm 0.00 in0.0 mm
05:55 AM 46.6°F8.1°C 46.6°F8.1°C 99% Calm Calm 4.0 mph6.4 kmh 29.88 in1011.9 mb 0.00 in0.0 mm 0.00 in0.0 mm 0.00 in0.0 mm
06:01 AM 46.6°F8.1°C 46.6°F8.1°C 99% Calm Calm -- 29.88 in1011.9 mb 0.00 in0.0 mm 0.00 in0.0 mm 0.00 in0.0 mm
06:05 AM 46.6°F8.1°C 46.6°F8.1°C 99% Calm Calm -- 29.88 in1011.9 mb 0.00 in0.0 mm 0.00 in0.0 mm 0.00 in0.0 mm
06:11 AM 46.6°F8.1°C 46.6°F8.1°C 99% Calm Calm -- 29.88 in1011.9 mb 0.00 in0.0 mm 0.00 in0.0 mm 0.00 in0.0 mm
06:15 AM 46.4°F8.0°C 46.4°F8.0°C 99% Calm Calm -- 29.88 in1011.9 mb 0.00 in0.0 mm 0.00 in0.0 mm 0.00 in0.0 mm
06:20 AM 46.2°F7.9°C 46.2°F7.9°C 99% Calm Calm -- 29.88 in1011.9 mb 0.00 in0.0 mm 0.00 in0.0 mm 0.00 in0.0 mm
06:25 AM 46.4°F8.0°C 46.4°F8.0°C 99% Calm Calm -- 29.88 in1011.9 mb 0.00 in0.0 mm 0.00 in0.0 mm 0.00 in0.0 mm
06:35 AM 46.4°F8.0°C 46.4°F8.0°C 99% Calm Calm -- 29.88 in1011.9 mb 0.00 in0.0 mm 0.00 in0.0 mm 0.00 in0.0 mm
06:51 AM 46.0°F7.8°C 46.0°F7.8°C 99% Calm Calm -- 29.88 in1011.9 mb 0.00 in0.0 mm 0.00 in0.0 mm 0.00 in0.0 mm
06:55 AM 45.8°F7.7°C 45.8°F7.7°C 99% Calm Calm -- 29.88 in1011.9 mb 0.00 in0.0 mm 0.00 in0.0 mm 0.00 in0.0 mm
07:05 AM 46.0°F7.8°C 46.0°F7.8°C 99% Calm Calm -- 29.88 in1011.9 mb 0.00 in0.0 mm 0.00 in0.0 mm 0.00 in0.0 mm
07:10 AM 46.0°F7.8°C 46.0°F7.8°C 99% Calm Calm -- 29.88 in1011.9 mb 0.00 in0.0 mm 0.00 in0.0 mm 0.00 in0.0 mm
07:15 AM 46.0°F7.8°C 46.0°F7.8°C 99% Calm Calm -- 29.88 in1011.9 mb 0.00 in0.0 mm 0.00 in0.0 mm 0.00 in0.0 mm
07:20 AM 46.0°F7.8°C 46.0°F7.8°C 99% Calm Calm -- 29.88 in1011.9 mb 0.00 in0.0 mm 0.00 in0.0 mm 0.00 in0.0 mm
07:25 AM 46.0°F7.8°C 46.0°F7.8°C 99% Calm Calm -- 29.88 in1011.9 mb 0.00 in0.0 mm 0.00 in0.0 mm 0.00 in0.0 mm
07:30 AM 45.8°F7.7°C 45.8°F7.7°C 99% Calm Calm -- 29.88 in1011.9 mb 0.00 in0.0 mm 0.00 in0.0 mm 0.00 in0.0 mm
07:35 AM 45.7°F7.6°C 45.7°F7.6°C 99% Calm Calm -- 29.85 in1010.8 mb 0.00 in0.0 mm 0.00 in0.0 mm 0.00 in0.0 mm
07:40 AM 45.7°F7.6°C 45.7°F7.6°C 99% Calm Calm -- 29.85 in1010.8 mb 0.00 in0.0 mm 0.00 in0.0 mm 0.00 in0.0 mm
07:45 AM 45.7°F7.6°C 45.7°F7.6°C 99% Calm Calm -- 29.85 in1010.8 mb 0.00 in0.0 mm 0.00 in0.0 mm 0.00 in0.0 mm
07:51 AM 45.7°F7.6°C 45.7°F7.6°C 99% Calm Calm -- 29.85 in1010.8 mb 0.00 in0.0 mm 0.00 in0.0 mm 0.00 in0.0 mm
07:55 AM 45.5°F7.5°C 45.5°F7.5°C 99% Calm Calm -- 29.85 in1010.8 mb 0.00 in0.0 mm 0.00 in0.0 mm 0.00 in0.0 mm
08:01 AM 45.3°F7.4°C 45.3°F7.4°C 99% Calm Calm -- 29.85 in1010.8 mb 0.00 in0.0 mm 0.00 in0.0 mm 0.00 in0.0 mm
08:11 AM 45.3°F7.4°C 45.3°F7.4°C 99% Calm Calm 2.2 mph3.5 kmh 29.85 in1010.8 mb 0.00 in0.0 mm 0.00 in0.0 mm 0.00 in0.0 mm
08:15 AM 45.3°F7.4°C 45.3°F7.4°C 99% Calm Calm 2.2 mph3.5 kmh 29.85 in1010.8 mb 0.00 in0.0 mm 0.00 in0.0 mm 0.00 in0.0 mm
08:31 AM 45.1°F7.3°C 45.1°F7.3°C 99% Calm Calm 2.2 mph3.5 kmh 29.85 in1010.8 mb 0.00 in0.0 mm 0.00 in0.0 mm 0.00 in0.0 mm
08:35 AM 45.3°F7.4°C 45.3°F7.4°C 99% Calm Calm 2.2 mph3.5 kmh 29.85 in1010.8 mb 0.00 in0.0 mm 0.00 in0.0 mm 0.00 in0.0 mm
08:50 AM 45.7°F7.6°C 45.7°F7.6°C 99% Calm Calm 2.2 mph3.5 kmh 29.85 in1010.8 mb 0.00 in0.0 mm 0.00 in0.0 mm 0.00 in0.0 mm
08:55 AM 45.8°F7.7°C 45.8°F7.7°C 99% Calm Calm 2.2 mph3.5 kmh 29.85 in1010.8 mb 0.00 in0.0 mm 0.00 in0.0 mm 0.00 in0.0 mm
09:01 AM 45.8°F7.7°C 45.8°F7.7°C 99% Calm Calm -- 29.85 in1010.8 mb 0.00 in0.0 mm 0.00 in0.0 mm 0.00 in0.0 mm
09:05 AM 46.0°F7.8°C 46.0°F7.8°C 99% Calm Calm -- 29.85 in1010.8 mb 0.00 in0.0 mm 0.00 in0.0 mm 0.00 in0.0 mm
09:10 AM 46.0°F7.8°C 46.0°F7.8°C 99% Calm Calm -- 29.85 in1010.8 mb 0.00 in0.0 mm 0.00 in0.0 mm 0.00 in0.0 mm
09:15 AM 46.0°F7.8°C 46.0°F7.8°C 99% Calm Calm -- 29.85 in1010.8 mb 0.00 in0.0 mm 0.00 in0.0 mm 0.00 in0.0 mm
09:20 AM 46.0°F7.8°C 46.0°F7.8°C 99% Calm Calm -- 29.85 in1010.8 mb 0.00 in0.0 mm 0.00 in0.0 mm 0.00 in0.0 mm
09:25 AM 46.0°F7.8°C 46.0°F7.8°C 99% Calm Calm -- 29.85 in1010.8 mb 0.00 in0.0 mm 0.00 in0.0 mm 0.00 in0.0 mm
09:30 AM 46.0°F7.8°C 46.0°F7.8°C 99% Calm Calm -- 29.85 in1010.8 mb 0.00 in0.0 mm 0.00 in0.0 mm 0.00 in0.0 mm
09:51 AM 45.8°F7.7°C 45.8°F7.7°C 99% Calm Calm -- 29.85 in1010.8 mb 0.00 in0.0 mm 0.00 in0.0 mm 0.00 in0.0 mm
09:55 AM 45.7°F7.6°C 45.7°F7.6°C 99% Calm Calm -- 29.85 in1010.8 mb 0.00 in0.0 mm 0.00 in0.0 mm 0.00 in0.0 mm
10:00 AM 45.7°F7.6°C 45.7°F7.6°C 99% Calm Calm -- 29.85 in1010.8 mb 0.00 in0.0 mm 0.00 in0.0 mm 0.00 in0.0 mm
10:05 AM 45.7°F7.6°C 45.7°F7.6°C 99% Calm Calm -- 29.85 in1010.8 mb 0.00 in0.0 mm 0.00 in0.0 mm 0.00 in0.0 mm
10:11 AM 45.5°F7.5°C 45.5°F7.5°C 99% Calm Calm -- 29.85 in1010.8 mb 0.00 in0.0 mm 0.00 in0.0 mm 0.00 in0.0 mm
10:21 AM 45.3°F7.4°C 45.3°F7.4°C 99% Calm Calm -- 29.85 in1010.8 mb 0.00 in0.0 mm 0.00 in0.0 mm 0.00 in0.0 mm
10:25 AM 45.5°F7.5°C 45.5°F7.5°C 99% Calm Calm -- 29.85 in1010.8 mb 0.00 in0.0 mm 0.00 in0.0 mm 0.00 in0.0 mm
10:35 AM 45.5°F7.5°C 45.5°F7.5°C 99% Calm Calm -- 29.85 in1010.8 mb 0.00 in0.0 mm 0.00 in0.0 mm 0.00 in0.0 mm
10:40 AM 45.7°F7.6°C 45.7°F7.6°C 99% Calm Calm -- 29.85 in1010.8 mb 0.00 in0.0 mm 0.00 in0.0 mm 0.00 in0.0 mm
10:45 AM 45.8°F7.7°C 45.8°F7.7°C 99% Calm Calm -- 29.85 in1010.8 mb 0.00 in0.0 mm 0.00 in0.0 mm 0.00 in0.0 mm
10:50 AM 45.8°F7.7°C 45.8°F7.7°C 99% 2.2 mph NW3.5 kmh NW 2.2 mph3.5 kmh 29.85 in1010.8 mb 0.00 in0.0 mm 0.00 in0.0 mm 0.00 in0.0 mm
10:55 AM 45.8°F7.7°C 45.8°F7.7°C 99% 3.1 mph NW5.0 kmh NW 3.1 mph5.0 kmh 29.85 in1010.8 mb 0.00 in0.0 mm 0.00 in0.0 mm 0.00 in0.0 mm
11:00 AM 45.7°F7.6°C 45.7°F7.6°C 99% 2.7 mph NW4.3 kmh NW 3.1 mph5.0 kmh 29.85 in1010.8 mb 0.00 in0.0 mm 0.00 in0.0 mm 0.00 in0.0 mm
11:05 AM 45.7°F7.6°C 45.7°F7.6°C 99% Calm Calm 3.1 mph5.0 kmh 29.85 in1010.8 mb 0.00 in0.0 mm 0.00 in0.0 mm 0.00 in0.0 mm
11:15 AM 45.7°F7.6°C 45.7°F7.6°C 99% Calm Calm 3.1 mph5.0 kmh 29.85 in1010.8 mb 0.00 in0.0 mm 0.00 in0.0 mm 0.00 in0.0 mm
11:20 AM 45.7°F7.6°C 45.7°F7.6°C 99% Calm Calm 3.1 mph5.0 kmh 29.85 in1010.8 mb 0.00 in0.0 mm 0.00 in0.0 mm 0.00 in0.0 mm
11:25 AM 45.8°F7.7°C 45.8°F7.7°C 99% Calm Calm 3.1 mph5.0 kmh 29.85 in1010.8 mb 0.00 in0.0 mm 0.00 in0.0 mm 0.00 in0.0 mm
11:30 AM 45.8°F7.7°C 45.8°F7.7°C 99% Calm Calm 3.1 mph5.0 kmh 29.85 in1010.8 mb 0.00 in0.0 mm 0.00 in0.0 mm 0.00 in0.0 mm
11:35 AM 46.0°F7.8°C 46.0°F7.8°C 99% Calm Calm 3.1 mph5.0 kmh 29.85 in1010.8 mb 0.00 in0.0 mm 0.00 in0.0 mm 0.00 in0.0 mm
11:41 AM 46.0°F7.8°C 46.0°F7.8°C 99% Calm Calm 3.1 mph5.0 kmh 29.85 in1010.8 mb 0.00 in0.0 mm 0.00 in0.0 mm 0.00 in0.0 mm
11:45 AM 46.0°F7.8°C 46.0°F7.8°C 99% Calm Calm 3.1 mph5.0 kmh 29.85 in1010.8 mb 0.00 in0.0 mm 0.00 in0.0 mm 0.00 in0.0 mm
11:50 AM 46.0°F7.8°C 46.0°F7.8°C 99% Calm Calm 3.1 mph5.0 kmh 29.85 in1010.8 mb 0.00 in0.0 mm 0.00 in0.0 mm 0.00 in0.0 mm
11:55 AM 46.0°F7.8°C 45.7°F7.6°C 99% Calm Calm 3.1 mph5.0 kmh 29.85 in1010.8 mb 0.00 in0.0 mm 0.00 in0.0 mm 0.00 in0.0 mm
12:00 PM 45.8°F7.7°C 45.8°F7.7°C 99% Calm Calm -- 29.85 in1010.8 mb 0.00 in0.0 mm 0.00 in0.0 mm 0.00 in0.0 mm
12:05 PM 45.8°F7.7°C 45.8°F7.7°C 99% Calm Calm -- 29.85 in1010.8 mb 0.00 in0.0 mm 0.00 in0.0 mm 0.00 in0.0 mm
12:10 PM 45.7°F7.6°C 45.7°F7.6°C 99% Calm Calm -- 29.85 in1010.8 mb 0.00 in0.0 mm 0.00 in0.0 mm 0.00 in0.0 mm
12:15 PM 45.5°F7.5°C 45.5°F7.5°C 99% Calm Calm -- 29.85 in1010.8 mb 0.00 in0.0 mm 0.00 in0.0 mm 0.00 in0.0 mm
12:20 PM 45.5°F7.5°C 45.5°F7.5°C 99% Calm Calm -- 29.85 in1010.8 mb 0.00 in0.0 mm 0.00 in0.0 mm 0.00 in0.0 mm
12:25 PM 45.7°F7.6°C 45.7°F7.6°C 99% Calm Calm -- 29.85 in1010.8 mb 0.00 in0.0 mm 0.00 in0.0 mm 0.00 in0.0 mm
12:30 PM 45.7°F7.6°C 45.7°F7.6°C 99% Calm Calm -- 29.85 in1010.8 mb 0.00 in0.0 mm 0.00 in0.0 mm 0.00 in0.0 mm
12:35 PM 45.5°F7.5°C 45.5°F7.5°C 99% Calm Calm -- 29.85 in1010.8 mb 0.00 in0.0 mm 0.00 in0.0 mm 0.00 in0.0 mm
12:40 PM 45.3°F7.4°C 45.3°F7.4°C 99% Calm Calm -- 29.85 in1010.8 mb 0.00 in0.0 mm 0.00 in0.0 mm 0.00 in0.0 mm
12:45 PM 45.3°F7.4°C 45.3°F7.4°C 99% Calm Calm -- 29.85 in1010.8 mb 0.00 in0.0 mm 0.00 in0.0 mm 0.00 in0.0 mm
12:50 PM 45.1°F7.3°C 45.1°F7.3°C 99% Calm Calm -- 29.85 in1010.8 mb 0.00 in0.0 mm 0.00 in0.0 mm 0.00 in0.0 mm
12:55 PM 45.3°F7.4°C 45.3°F7.4°C 99% Calm Calm 2.2 mph3.5 kmh 29.85 in1010.8 mb 0.00 in0.0 mm 0.00 in0.0 mm 0.00 in0.0 mm
01:00 PM 45.3°F7.4°C 45.3°F7.4°C 99% Calm Calm -- 29.85 in1010.8 mb 0.00 in0.0 mm 0.00 in0.0 mm 0.00 in0.0 mm
01:05 PM 45.5°F7.5°C 45.5°F7.5°C 99% Calm Calm -- 29.85 in1010.8 mb 0.00 in0.0 mm 0.00 in0.0 mm 0.00 in0.0 mm
01:10 PM 45.7°F7.6°C 45.7°F7.6°C 99% Calm Calm -- 29.85 in1010.8 mb 0.00 in0.0 mm 0.00 in0.0 mm 0.00 in0.0 mm
01:15 PM 45.8°F7.7°C 45.8°F7.7°C 99% Calm Calm -- 29.85 in1010.8 mb 0.00 in0.0 mm 0.00 in0.0 mm 0.00 in0.0 mm
01:21 PM 45.7°F7.6°C 45.7°F7.6°C 99% Calm Calm -- 29.85 in1010.8 mb 0.00 in0.0 mm 0.00 in0.0 mm 0.00 in0.0 mm
01:25 PM 45.8°F7.7°C 45.8°F7.7°C 99% Calm Calm -- 29.85 in1010.8 mb 0.00 in0.0 mm 0.00 in0.0 mm 0.00 in0.0 mm
01:30 PM 46.0°F7.8°C 46.0°F7.8°C 99% Calm Calm -- 29.85 in1010.8 mb 0.00 in0.0 mm 0.00 in0.0 mm 0.00 in0.0 mm
01:35 PM 46.2°F7.9°C 45.9°F7.7°C 99% Calm Calm -- 29.85 in1010.8 mb 0.00 in0.0 mm 0.00 in0.0 mm 0.00 in0.0 mm
01:40 PM 46.4°F8.0°C 45.6°F7.6°C 97% Calm Calm -- 29.85 in1010.8 mb 0.00 in0.0 mm 0.00 in0.0 mm 0.00 in0.0 mm
01:45 PM 46.7°F8.2°C 45.6°F7.6°C 96% Calm Calm -- 29.85 in1010.8 mb 0.00 in0.0 mm 0.00 in0.0 mm 0.00 in0.0 mm
01:50 PM 46.9°F8.3°C 45.7°F7.6°C 96% Calm Calm -- 29.85 in1010.8 mb 0.00 in0.0 mm 0.00 in0.0 mm 0.00 in0.0 mm
01:55 PM 47.3°F8.5°C 46.1°F7.8°C 96% Calm Calm -- 29.85 in1010.8 mb 0.00 in0.0 mm 0.00 in0.0 mm 0.00 in0.0 mm
02:00 PM 47.6°F8.7°C 46.4°F8.0°C 96% Calm Calm -- 29.85 in1010.8 mb 0.00 in0.0 mm 0.00 in0.0 mm 0.00 in0.0 mm
02:05 PM 48.0°F8.9°C 46.4°F8.0°C 94% Calm Calm -- 29.85 in1010.8 mb 0.00 in0.0 mm 0.00 in0.0 mm 0.00 in0.0 mm
02:10 PM 48.4°F9.1°C 46.7°F8.2°C 94% Calm Calm -- 29.85 in1010.8 mb 0.00 in0.0 mm 0.00 in0.0 mm 0.00 in0.0 mm
02:15 PM 48.5°F9.2°C 46.9°F8.3°C 94% Calm Calm -- 29.85 in1010.8 mb 0.00 in0.0 mm 0.00 in0.0 mm 0.00 in0.0 mm
02:20 PM 48.7°F9.3°C 46.6°F8.1°C 92% Calm Calm -- 29.88 in1011.9 mb 0.00 in0.0 mm 0.00 in0.0 mm 0.00 in0.0 mm
02:25 PM 48.7°F9.3°C 46.1°F7.8°C 91% Calm Calm -- 29.88 in1011.9 mb 0.00 in0.0 mm 0.00 in0.0 mm 0.00 in0.0 mm
02:31 PM 48.7°F9.3°C 46.1°F7.8°C 91% Calm Calm -- 29.88 in1011.9 mb 0.00 in0.0 mm 0.00 in0.0 mm 0.00 in0.0 mm
02:35 PM 48.9°F9.4°C 46.8°F8.2°C 92% Calm Calm -- 29.88 in1011.9 mb 0.00 in0.0 mm 0.00 in0.0 mm 0.00 in0.0 mm
02:40 PM 49.1°F9.5°C 46.0°F7.8°C 89% Calm Calm -- 29.88 in1011.9 mb 0.00 in0.0 mm 0.00 in0.0 mm 0.00 in0.0 mm
02:45 PM 49.3°F9.6°C 45.7°F7.6°C 87% Calm Calm -- 29.88 in1011.9 mb 0.00 in0.0 mm 0.00 in0.0 mm 0.00 in0.0 mm
02:50 PM 49.4°F9.7°C 44.9°F7.2°C 84% Calm Calm -- 29.88 in1011.9 mb 0.00 in0.0 mm 0.00 in0.0 mm 0.00 in0.0 mm
02:55 PM 50.0°F10.0°C 45.4°F7.4°C 84% Calm Calm -- 29.88 in1011.9 mb 0.00 in0.0 mm 0.00 in0.0 mm 0.00 in0.0 mm
03:00 PM 50.3°F10.2°C 45.3°F7.4°C 83% 3.1 mph NW5.0 kmh NW 3.1 mph5.0 kmh 29.88 in1011.9 mb 0.00 in0.0 mm 0.00 in0.0 mm 0.00 in0.0 mm
03:05 PM 50.5°F10.3°C 44.4°F6.9°C 79% 2.7 mph S4.3 kmh S 3.1 mph5.0 kmh 29.88 in1011.9 mb 0.00 in0.0 mm 0.00 in0.0 mm 0.00 in0.0 mm
03:11 PM 50.5°F10.3°C 43.9°F6.6°C 78% Calm Calm 3.1 mph5.0 kmh 29.88 in1011.9 mb 0.00 in0.0 mm 0.00 in0.0 mm 0.00 in0.0 mm
03:15 PM 50.7°F10.4°C 44.0°F6.7°C 78% 2.7 mph S4.3 kmh S 3.1 mph5.0 kmh 29.88 in1011.9 mb 0.00 in0.0 mm 0.00 in0.0 mm 0.00 in0.0 mm
03:20 PM 51.1°F10.6°C 43.8°F6.6°C 76% Calm Calm 3.1 mph5.0 kmh 29.88 in1011.9 mb 0.00 in0.0 mm 0.00 in0.0 mm 0.00 in0.0 mm
03:25 PM 51.2°F10.7°C 44.0°F6.7°C 76% Calm Calm 3.1 mph5.0 kmh 29.88 in1011.9 mb 0.00 in0.0 mm 0.00 in0.0 mm 0.00 in0.0 mm
03:30 PM 51.4°F10.8°C 43.6°F6.4°C 75% Calm Calm 3.1 mph5.0 kmh 29.88 in1011.9 mb 0.00 in0.0 mm 0.00 in0.0 mm 0.00 in0.0 mm
03:35 PM 51.8°F11.0°C 43.4°F6.3°C 73% Calm Calm 3.1 mph5.0 kmh 29.88 in1011.9 mb 0.00 in0.0 mm 0.00 in0.0 mm 0.00 in0.0 mm
03:40 PM 52.1°F11.2°C 43.7°F6.5°C 73% Calm Calm 3.1 mph5.0 kmh 29.88 in1011.9 mb 0.00 in0.0 mm 0.00 in0.0 mm 0.00 in0.0 mm
03:45 PM 52.5°F11.4°C 43.5°F6.4°C 71% Calm Calm 3.1 mph5.0 kmh 29.88 in1011.9 mb 0.00 in0.0 mm 0.00 in0.0 mm 0.00 in0.0 mm
03:50 PM 52.9°F11.6°C 43.2°F6.2°C 70% 3.1 mph SE5.0 kmh SE 3.6 mph5.8 kmh 29.88 in1011.9 mb 0.00 in0.0 mm 0.00 in0.0 mm 0.00 in0.0 mm
03:55 PM 53.2°F11.8°C 43.0°F6.1°C 68% Calm Calm 3.6 mph5.8 kmh 29.88 in1011.9 mb 0.00 in0.0 mm 0.00 in0.0 mm 0.00 in0.0 mm
04:00 PM 53.8°F12.1°C 44.1°F6.7°C 70% 2.7 mph SW4.3 kmh SW 2.7 mph4.3 kmh 29.88 in1011.9 mb 0.00 in0.0 mm 0.00 in0.0 mm 0.00 in0.0 mm
04:05 PM 54.1°F12.3°C 43.8°F6.6°C 68% Calm Calm 5.8 mph9.3 kmh 29.88 in1011.9 mb 0.00 in0.0 mm 0.00 in0.0 mm 0.00 in0.0 mm
04:10 PM 55.0°F12.8°C 45.3°F7.4°C 70% Calm Calm 5.8 mph9.3 kmh 29.88 in1011.9 mb 0.00 in0.0 mm 0.00 in0.0 mm 0.00 in0.0 mm
04:15 PM 56.1°F13.4°C 45.1°F7.3°C 66% Calm Calm 5.8 mph9.3 kmh 29.88 in1011.9 mb 0.00 in0.0 mm 0.00 in0.0 mm 0.00 in0.0 mm
04:20 PM 57.2°F14.0°C 42.7°F5.9°C 58% Calm Calm 5.8 mph9.3 kmh 29.91 in1012.9 mb 0.00 in0.0 mm 0.00 in0.0 mm 0.00 in0.0 mm
04:25 PM 57.7°F14.3°C 43.2°F6.2°C 58% 3.1 mph N5.0 kmh N 5.8 mph9.3 kmh 29.91 in1012.9 mb 0.00 in0.0 mm 0.00 in0.0 mm 0.00 in0.0 mm
04:30 PM 58.4°F14.7°C 44.6°F7.0°C 60% 2.7 mph SW4.3 kmh SW 5.8 mph9.3 kmh 29.91 in1012.9 mb 0.00 in0.0 mm 0.00 in0.0 mm 0.00 in0.0 mm
04:35 PM 58.8°F14.9°C 43.5°F6.4°C 57% 2.7 mph WSW4.3 kmh WSW 5.8 mph9.3 kmh 29.91 in1012.9 mb 0.00 in0.0 mm 0.00 in0.0 mm 0.00 in0.0 mm
04:40 PM 58.6°F14.8°C 44.1°F6.7°C 58% Calm Calm 5.8 mph9.3 kmh 29.91 in1012.9 mb 0.00 in0.0 mm 0.00 in0.0 mm 0.00 in0.0 mm
04:45 PM 58.3°F14.6°C 43.0°F6.1°C 57% Calm Calm 5.8 mph9.3 kmh 29.91 in1012.9 mb 0.00 in0.0 mm 0.00 in0.0 mm 0.00 in0.0 mm
04:50 PM 57.4°F14.1°C 42.1°F5.6°C 57% 4.0 mph SE6.4 kmh SE 5.8 mph9.3 kmh 29.91 in1012.9 mb 0.00 in0.0 mm 0.00 in0.0 mm 0.00 in0.0 mm
04:55 PM 56.6°F13.7°C 42.2°F5.7°C 58% 3.6 mph SE5.8 kmh SE 5.8 mph9.3 kmh 29.91 in1012.9 mb 0.00 in0.0 mm 0.00 in0.0 mm 0.00 in0.0 mm
05:00 PM 56.5°F13.6°C 42.7°F5.9°C 60% 2.7 mph SE4.3 kmh SE 2.7 mph4.3 kmh 29.91 in1012.9 mb 0.00 in0.0 mm 0.00 in0.0 mm 0.00 in0.0 mm
05:05 PM 56.6°F13.7°C 42.9°F6.1°C 60% 2.7 mph SE4.3 kmh SE 3.6 mph5.8 kmh 29.91 in1012.9 mb 0.00 in0.0 mm 0.00 in0.0 mm 0.00 in0.0 mm
05:10 PM 57.5°F14.2°C 43.0°F6.1°C 58% 3.1 mph WNW5.0 kmh WNW 4.0 mph6.4 kmh 29.91 in1012.9 mb 0.00 in0.0 mm 0.00 in0.0 mm 0.00 in0.0 mm
05:15 PM 57.5°F14.2°C 43.0°F6.1°C 58% 3.6 mph WNW5.8 kmh WNW 5.4 mph8.7 kmh 29.91 in1012.9 mb 0.00 in0.0 mm 0.00 in0.0 mm 0.00 in0.0 mm
05:20 PM 58.4°F14.7°C 43.1°F6.2°C 57% Calm Calm 5.4 mph8.7 kmh 29.91 in1012.9 mb 0.00 in0.0 mm 0.00 in0.0 mm 0.00 in0.0 mm
05:25 PM 58.8°F14.9°C 43.5°F6.4°C 57% 4.9 mph SSE7.9 kmh SSE 5.4 mph8.7 kmh 29.91 in1012.9 mb 0.00 in0.0 mm 0.00 in0.0 mm 0.00 in0.0 mm
05:30 PM 59.0°F15.0°C 42.9°F6.1°C 55% 3.6 mph SE5.8 kmh SE 6.3 mph10.1 kmh 29.91 in1012.9 mb 0.00 in0.0 mm 0.00 in0.0 mm 0.00 in0.0 mm
05:35 PM 59.2°F15.1°C 43.8°F6.6°C 57% 7.6 mph S12.2 kmh S 7.6 mph12.2 kmh 29.91 in1012.9 mb 0.00 in0.0 mm 0.00 in0.0 mm 0.00 in0.0 mm
05:40 PM 58.6°F14.8°C 42.6°F5.9°C 55% 3.1 mph SSW5.0 kmh SSW 7.6 mph12.2 kmh 29.91 in1012.9 mb 0.00 in0.0 mm 0.00 in0.0 mm 0.00 in0.0 mm
05:45 PM 58.3°F14.6°C 42.2°F5.7°C 55% 3.6 mph SE5.8 kmh SE 7.6 mph12.2 kmh 29.91 in1012.9 mb 0.00 in0.0 mm 0.00 in0.0 mm 0.00 in0.0 mm
05:50 PM 57.4°F14.1°C 41.4°F5.2°C 55% 2.7 mph SW4.3 kmh SW 7.6 mph12.2 kmh 29.91 in1012.9 mb 0.00 in0.0 mm 0.00 in0.0 mm 0.00 in0.0 mm
05:55 PM 56.8°F13.8°C 41.6°F5.3°C 57% 3.6 mph SSW5.8 kmh SSW 7.6 mph12.2 kmh 29.91 in1012.9 mb 0.00 in0.0 mm 0.00 in0.0 mm 0.00 in0.0 mm
06:00 PM 56.8°F13.8°C 41.6°F5.3°C 57% 2.2 mph WNW3.5 kmh WNW 2.7 mph4.3 kmh 29.91 in1012.9 mb 0.00 in0.0 mm 0.00 in0.0 mm 0.00 in0.0 mm
06:05 PM 57.7°F14.3°C 42.5°F5.8°C 57% 2.7 mph S4.3 kmh S 8.1 mph13.0 kmh 29.91 in1012.9 mb 0.00 in0.0 mm 0.00 in0.0 mm 0.00 in0.0 mm
06:10 PM 58.3°F14.6°C 43.0°F6.1°C 57% 5.4 mph SE8.7 kmh SE 8.3 mph13.4 kmh 29.91 in1012.9 mb 0.00 in0.0 mm 0.00 in0.0 mm 0.00 in0.0 mm
06:15 PM 59.0°F15.0°C 42.9°F6.1°C 55% 6.3 mph SE10.1 kmh SE 8.3 mph13.4 kmh 29.91 in1012.9 mb 0.00 in0.0 mm 0.00 in0.0 mm 0.00 in0.0 mm
06:20 PM 58.1°F14.5°C 42.1°F5.6°C 55% 4.5 mph SE7.2 kmh SE 8.3 mph13.4 kmh 29.91 in1012.9 mb 0.00 in0.0 mm 0.00 in0.0 mm 0.00 in0.0 mm
06:25 PM 57.9°F14.4°C 42.6°F5.9°C 57% Calm Calm 8.3 mph13.4 kmh 29.91 in1012.9 mb 0.00 in0.0 mm 0.00 in0.0 mm 0.00 in0.0 mm
06:30 PM 57.9°F14.4°C 41.9°F5.5°C 55% 4.9 mph ESE7.9 kmh ESE 8.3 mph13.4 kmh 29.91 in1012.9 mb 0.00 in0.0 mm 0.00 in0.0 mm 0.00 in0.0 mm
06:35 PM 57.7°F14.3°C 42.5°F5.8°C 57% 2.7 mph SSW4.3 kmh SSW 8.3 mph13.4 kmh 29.91 in1012.9 mb 0.00 in0.0 mm 0.00 in0.0 mm 0.00 in0.0 mm
06:40 PM 57.9°F14.4°C 42.6°F5.9°C 57% 3.6 mph SW5.8 kmh SW 8.3 mph13.4 kmh 29.91 in1012.9 mb 0.00 in0.0 mm 0.00 in0.0 mm 0.00 in0.0 mm
06:45 PM 57.7°F14.3°C 43.2°F6.2°C 58% 2.2 mph WSW3.5 kmh WSW 8.3 mph13.4 kmh 29.91 in1012.9 mb 0.00 in0.0 mm 0.00 in0.0 mm 0.00 in0.0 mm
06:50 PM 57.4°F14.1°C 42.9°F6.1°C 58% 2.7 mph WNW4.3 kmh WNW 8.3 mph13.4 kmh 29.94 in1013.9 mb 0.00 in0.0 mm 0.00 in0.0 mm 0.00 in0.0 mm
06:55 PM 57.2°F14.0°C 43.4°F6.3°C 60% 3.1 mph WSW5.0 kmh WSW 8.3 mph13.4 kmh 29.94 in1013.9 mb 0.00 in0.0 mm 0.00 in0.0 mm 0.00 in0.0 mm
07:00 PM 57.2°F14.0°C 44.1°F6.7°C 62% Calm Calm 3.1 mph5.0 kmh 29.94 in1013.9 mb 0.00 in0.0 mm 0.00 in0.0 mm 0.00 in0.0 mm
07:05 PM 57.2°F14.0°C 44.8°F7.1°C 63% Calm Calm 3.1 mph5.0 kmh 29.94 in1013.9 mb 0.00 in0.0 mm 0.00 in0.0 mm 0.00 in0.0 mm
07:10 PM 57.5°F14.2°C 43.8°F6.6°C 60% 2.2 mph WNW3.5 kmh WNW 5.8 mph9.3 kmh 29.94 in1013.9 mb 0.00 in0.0 mm 0.00 in0.0 mm 0.00 in0.0 mm
07:15 PM 57.9°F14.4°C 45.5°F7.5°C 63% 2.7 mph ESE4.3 kmh ESE 8.1 mph13.0 kmh 29.94 in1013.9 mb 0.00 in0.0 mm 0.00 in0.0 mm 0.00 in0.0 mm
07:25 PM 57.9°F14.4°C 44.8°F7.1°C 62% 2.7 mph WNW4.3 kmh WNW 8.1 mph13.0 kmh 29.94 in1013.9 mb 0.00 in0.0 mm 0.00 in0.0 mm 0.00 in0.0 mm
07:30 PM 58.1°F14.5°C 44.3°F6.8°C 60% 3.1 mph NW5.0 kmh NW 8.1 mph13.0 kmh 29.94 in1013.9 mb 0.00 in0.0 mm 0.00 in0.0 mm 0.00 in0.0 mm
07:35 PM 57.9°F14.4°C 44.1°F6.7°C 60% 3.1 mph W5.0 kmh W 8.1 mph13.0 kmh 29.94 in1013.9 mb 0.00 in0.0 mm 0.00 in0.0 mm 0.00 in0.0 mm
07:40 PM 57.5°F14.2°C 43.8°F6.6°C 60% 7.2 mph S11.6 kmh S 8.1 mph13.0 kmh 29.94 in1013.9 mb 0.00 in0.0 mm 0.00 in0.0 mm 0.00 in0.0 mm
07:45 PM 57.5°F14.2°C 44.5°F6.9°C 62% 2.7 mph W4.3 kmh W 8.1 mph13.0 kmh 29.94 in1013.9 mb 0.00 in0.0 mm 0.00 in0.0 mm 0.00 in0.0 mm
07:50 PM 57.5°F14.2°C 43.8°F6.6°C 60% 3.6 mph W5.8 kmh W 8.1 mph13.0 kmh 29.94 in1013.9 mb 0.00 in0.0 mm 0.00 in0.0 mm 0.00 in0.0 mm
07:55 PM 57.5°F14.2°C 43.0°F6.1°C 58% 6.3 mph WNW10.1 kmh WNW 8.1 mph13.0 kmh 29.94 in1013.9 mb 0.00 in0.0 mm 0.00 in0.0 mm 0.00 in0.0 mm
08:00 PM 57.7°F14.3°C 43.9°F6.6°C 60% 2.2 mph S3.5 kmh S 3.1 mph5.0 kmh 29.94 in1013.9 mb 0.00 in0.0 mm 0.00 in0.0 mm 0.00 in0.0 mm
08:05 PM 57.5°F14.2°C 44.5°F6.9°C 62% 2.2 mph WNW3.5 kmh WNW 6.3 mph10.1 kmh 29.94 in1013.9 mb 0.00 in0.0 mm 0.00 in0.0 mm 0.00 in0.0 mm
08:10 PM 57.2°F14.0°C 43.4°F6.3°C 60% 3.1 mph WNW5.0 kmh WNW 6.3 mph10.1 kmh 29.94 in1013.9 mb 0.00 in0.0 mm 0.00 in0.0 mm 0.00 in0.0 mm
08:20 PM 56.6°F13.7°C 43.6°F6.4°C 62% Calm Calm 8.1 mph13.0 kmh 29.94 in1013.9 mb 0.00 in0.0 mm 0.00 in0.0 mm 0.00 in0.0 mm
08:25 PM 56.1°F13.4°C 43.8°F6.6°C 63% Calm Calm 8.1 mph13.0 kmh 29.94 in1013.9 mb 0.00 in0.0 mm 0.00 in0.0 mm 0.00 in0.0 mm
08:30 PM 55.6°F13.1°C 44.6°F7.0°C 66% Calm Calm 8.1 mph13.0 kmh 29.94 in1013.9 mb 0.00 in0.0 mm 0.00 in0.0 mm 0.00 in0.0 mm
08:35 PM 54.8°F12.7°C 46.9°F8.3°C 75% Calm Calm 8.1 mph13.0 kmh 29.94 in1013.9 mb 0.04 in1.0 mm 0.48 in12.2 mm 0.04 in1.0 mm
08:40 PM 54.1°F12.3°C 48.4°F9.1°C 81% Calm Calm 8.1 mph13.0 kmh 29.94 in1013.9 mb 0.08 in2.0 mm 0.48 in12.2 mm 0.08 in2.0 mm
08:45 PM 53.0°F11.7°C 50.9°F10.5°C 92% Calm Calm 8.1 mph13.0 kmh 29.94 in1013.9 mb 0.08 in2.0 mm 0.00 in0.0 mm 0.08 in2.0 mm
08:50 PM 52.5°F11.4°C 51.7°F10.9°C 97% Calm Calm 8.1 mph13.0 kmh 29.94 in1013.9 mb 0.08 in2.0 mm 0.00 in0.0 mm 0.08 in2.0 mm
08:55 PM 52.1°F11.2°C 51.8°F11.0°C 99% Calm Calm 8.1 mph13.0 kmh 29.94 in1013.9 mb 0.08 in2.0 mm 0.00 in0.0 mm 0.08 in2.0 mm
09:00 PM 52.1°F11.2°C 52.1°F11.2°C 99% Calm Calm 2.7 mph4.3 kmh 29.94 in1013.9 mb 0.08 in2.0 mm 0.00 in0.0 mm 0.08 in2.0 mm
09:05 PM 52.0°F11.1°C 52.0°F11.1°C 99% Calm Calm 4.0 mph6.4 kmh 29.94 in1013.9 mb 0.12 in3.0 mm 0.48 in12.2 mm 0.12 in3.0 mm
09:10 PM 51.8°F11.0°C 51.8°F11.0°C 99% Calm Calm 4.0 mph6.4 kmh 29.94 in1013.9 mb 0.12 in3.0 mm 0.00 in0.0 mm 0.12 in3.0 mm
09:15 PM 51.8°F11.0°C 51.8°F11.0°C 99% Calm Calm 4.0 mph6.4 kmh 29.94 in1013.9 mb 0.12 in3.0 mm 0.00 in0.0 mm 0.12 in3.0 mm
09:20 PM 51.8°F11.0°C 51.8°F11.0°C 99% Calm Calm 4.0 mph6.4 kmh 29.97 in1014.9 mb 0.12 in3.0 mm 0.00 in0.0 mm 0.12 in3.0 mm
09:25 PM 51.6°F10.9°C 51.6°F10.9°C 99% Calm Calm 4.0 mph6.4 kmh 29.97 in1014.9 mb 0.16 in4.1 mm 0.48 in12.2 mm 0.16 in4.1 mm
09:30 PM 51.8°F11.0°C 51.8°F11.0°C 99% Calm Calm 4.0 mph6.4 kmh 29.97 in1014.9 mb 0.16 in4.1 mm 0.00 in0.0 mm 0.16 in4.1 mm
09:35 PM 52.0°F11.1°C 52.0°F11.1°C 99% Calm Calm 4.0 mph6.4 kmh 29.94 in1013.9 mb 0.16 in4.1 mm 0.00 in0.0 mm 0.16 in4.1 mm
09:40 PM 52.1°F11.2°C 52.1°F11.2°C 99% Calm Calm 4.0 mph6.4 kmh 29.94 in1013.9 mb 0.16 in4.1 mm 0.00 in0.0 mm 0.16 in4.1 mm
09:45 PM 52.1°F11.2°C 52.1°F11.2°C 99% Calm Calm 4.0 mph6.4 kmh 29.94 in1013.9 mb 0.16 in4.1 mm 0.00 in0.0 mm 0.16 in4.1 mm
09:50 PM 52.0°F11.1°C 52.0°F11.1°C 99% Calm Calm 4.0 mph6.4 kmh 29.94 in1013.9 mb 0.16 in4.1 mm 0.00 in0.0 mm 0.16 in4.1 mm
09:55 PM 52.0°F11.1°C 52.0°F11.1°C 99% Calm Calm 4.0 mph6.4 kmh 29.94 in1013.9 mb 0.16 in4.1 mm 0.00 in0.0 mm 0.16 in4.1 mm
10:00 PM 52.3°F11.3°C 52.3°F11.3°C 99% Calm Calm -- 29.94 in1013.9 mb 0.08 in2.0 mm 0.00 in0.0 mm 0.16 in4.1 mm
10:05 PM 52.5°F11.4°C 52.5°F11.4°C 99% Calm Calm -- 29.97 in1014.9 mb 0.08 in2.0 mm 0.00 in0.0 mm 0.16 in4.1 mm
10:10 PM 52.7°F11.5°C 52.7°F11.5°C 99% Calm Calm -- 29.97 in1014.9 mb 0.08 in2.0 mm 0.00 in0.0 mm 0.16 in4.1 mm
10:15 PM 52.5°F11.4°C 52.5°F11.4°C 99% Calm Calm -- 29.97 in1014.9 mb 0.08 in2.0 mm 0.00 in0.0 mm 0.16 in4.1 mm
10:20 PM 52.3°F11.3°C 52.3°F11.3°C 99% Calm Calm -- 29.94 in1013.9 mb 0.12 in3.0 mm 0.48 in12.2 mm 0.20 in5.1 mm
10:25 PM 52.0°F11.1°C 52.0°F11.1°C 99% Calm Calm -- 29.94 in1013.9 mb 0.12 in3.0 mm 0.00 in0.0 mm 0.20 in5.1 mm
10:30 PM 51.8°F11.0°C 51.8°F11.0°C 99% Calm Calm 3.6 mph5.8 kmh 29.94 in1013.9 mb 0.12 in3.0 mm 0.00 in0.0 mm 0.20 in5.1 mm
10:35 PM 51.6°F10.9°C 51.6°F10.9°C 99% 2.2 mph E3.5 kmh E 3.6 mph5.8 kmh 29.97 in1014.9 mb 0.12 in3.0 mm 0.00 in0.0 mm 0.20 in5.1 mm
10:40 PM 51.4°F10.8°C 51.4°F10.8°C 99% Calm Calm 3.6 mph5.8 kmh 29.97 in1014.9 mb 0.12 in3.0 mm 0.00 in0.0 mm 0.20 in5.1 mm
10:45 PM 51.2°F10.7°C 51.2°F10.7°C 99% Calm Calm 3.6 mph5.8 kmh 29.97 in1014.9 mb 0.12 in3.0 mm 0.00 in0.0 mm 0.20 in5.1 mm
10:50 PM 51.1°F10.6°C 51.1°F10.6°C 99% Calm Calm 3.6 mph5.8 kmh 29.97 in1014.9 mb 0.16 in4.1 mm 0.48 in12.2 mm 0.24 in6.1 mm
10:55 PM 50.7°F10.4°C 50.7°F10.4°C 99% Calm Calm 3.6 mph5.8 kmh 29.97 in1014.9 mb 0.16 in4.1 mm 0.00 in0.0 mm 0.24 in6.1 mm
11:00 PM 50.5°F10.3°C 50.5°F10.3°C 99% Calm Calm -- 29.97 in1014.9 mb 0.12 in3.0 mm 0.00 in0.0 mm 0.24 in6.1 mm
11:05 PM 50.3°F10.2°C 50.3°F10.2°C 99% Calm Calm -- 29.97 in1014.9 mb 0.12 in3.0 mm 0.00 in0.0 mm 0.24 in6.1 mm
11:11 PM 50.2°F10.1°C 50.2°F10.1°C 99% Calm Calm -- 29.97 in1014.9 mb 0.12 in3.0 mm 0.00 in0.0 mm 0.24 in6.1 mm
11:15 PM 50.2°F10.1°C 50.2°F10.1°C 99% Calm Calm 2.2 mph3.5 kmh 29.97 in1014.9 mb 0.12 in3.0 mm 0.00 in0.0 mm 0.24 in6.1 mm
11:20 PM 50.2°F10.1°C 50.2°F10.1°C 99% Calm Calm 3.1 mph5.0 kmh 29.97 in1014.9 mb 0.16 in4.1 mm 0.48 in12.2 mm 0.28 in7.1 mm
11:25 PM 50.0°F10.0°C 50.0°F10.0°C 99% 2.7 mph E4.3 kmh E 3.1 mph5.0 kmh 29.97 in1014.9 mb 0.16 in4.1 mm 0.00 in0.0 mm 0.28 in7.1 mm
11:30 PM 49.8°F9.9°C 49.8°F9.9°C 99% Calm Calm 3.1 mph5.0 kmh 29.97 in1014.9 mb 0.16 in4.1 mm 0.00 in0.0 mm 0.28 in7.1 mm
11:35 PM 50.0°F10.0°C 50.0°F10.0°C 99% Calm Calm 3.1 mph5.0 kmh 29.97 in1014.9 mb 0.20 in5.1 mm 0.48 in12.2 mm 0.32 in8.1 mm
11:40 PM 50.0°F10.0°C 50.0°F10.0°C 99% Calm Calm 3.1 mph5.0 kmh 29.97 in1014.9 mb 0.20 in5.1 mm 0.00 in0.0 mm 0.32 in8.1 mm
11:45 PM 50.2°F10.1°C 50.2°F10.1°C 99% Calm Calm 3.1 mph5.0 kmh 29.97 in1014.9 mb 0.20 in5.1 mm 0.00 in0.0 mm 0.32 in8.1 mm
11:50 PM 50.2°F10.1°C 50.2°F10.1°C 99% Calm Calm 3.1 mph5.0 kmh 29.97 in1014.9 mb 0.20 in5.1 mm 0.00 in0.0 mm 0.32 in8.1 mm
11:55 PM 50.5°F10.3°C 50.5°F10.3°C 99% Calm Calm 3.1 mph5.0 kmh 29.97 in1014.9 mb 0.20 in5.1 mm 0.00 in0.0 mm 0.32 in8.1 mm